createdAt,value
2023-03-31T00:02:49.330Z,100295.31
2023-03-31T00:05:58.385Z,100295.44
2023-03-31T00:09:03.710Z,100282.34
2023-03-31T00:12:07.956Z,100288.53
2023-03-31T00:15:12.339Z,100288.66
2023-03-31T00:18:16.142Z,100284.47
2023-03-31T00:21:25.945Z,100282.81
2023-03-31T00:24:32.846Z,100271.72
2023-03-31T00:27:36.485Z,100269.16
2023-03-31T00:30:40.437Z,100268.94
2023-03-31T00:33:44.307Z,100265.59
2023-03-31T00:36:48.371Z,100254.31
2023-03-31T00:39:53.269Z,100250.88
2023-03-31T00:42:56.720Z,100250.91
2023-03-31T00:46:18.141Z,100239.94
2023-03-31T00:49:30.181Z,100241.75
2023-03-31T00:52:37.835Z,100231.91
2023-03-31T00:55:47.444Z,100232.81
2023-03-31T00:58:53.979Z,100231.91
2023-03-31T01:02:02.828Z,100230.13
2023-03-31T01:05:08.562Z,100232.81
2023-03-31T01:08:13.356Z,100229.44
2023-03-31T01:11:26.227Z,100232.13
2023-03-31T01:14:30.454Z,100218.06
2023-03-31T01:17:35.802Z,100211.19
2023-03-31T01:21:19.803Z,100206.00
2023-03-31T01:25:12.532Z,100195.66
2023-03-31T01:28:33.764Z,100187.78
2023-03-31T01:32:22.000Z,100186.16
2023-03-31T01:36:26.332Z,100173.03
2023-03-31T01:40:18.088Z,100174.00
2023-03-31T01:43:27.057Z,100161.78
2023-03-31T01:46:37.493Z,100167.03
2023-03-31T01:49:52.293Z,100152.13
2023-03-31T01:53:05.485Z,100153.00
2023-03-31T01:56:19.556Z,100149.59
2023-03-31T01:59:31.201Z,100140.81
2023-03-31T02:02:40.990Z,100140.66
2023-03-31T02:05:52.678Z,100137.97
2023-03-31T02:09:02.285Z,100129.25
2023-03-31T02:12:12.779Z,100119.75
2023-03-31T02:15:25.003Z,100117.22
2023-03-31T02:18:38.434Z,100111.97
2023-03-31T02:21:43.024Z,100107.63
2023-03-31T02:24:49.980Z,100097.22
2023-03-31T02:28:01.300Z,100094.94
2023-03-31T02:31:24.788Z,100097.69
2023-03-31T02:34:28.536Z,100106.50
2023-03-31T02:37:32.677Z,100101.19
2023-03-31T02:40:36.363Z,100100.25
2023-03-31T02:43:41.333Z,100100.19
2023-03-31T02:46:45.485Z,100095.72
2023-03-31T02:49:54.446Z,100085.31
2023-03-31T02:53:09.584Z,100072.97
2023-03-31T02:56:37.124Z,100065.19
2023-03-31T02:59:58.059Z,100062.56
2023-03-31T03:03:20.001Z,100060.00
2023-03-31T03:06:42.932Z,100057.31
2023-03-31T03:10:02.293Z,100057.47
2023-03-31T03:13:14.630Z,100058.22
2023-03-31T03:16:28.374Z,100053.19
2023-03-31T03:19:31.999Z,100048.75
2023-03-31T03:22:37.138Z,100046.00
2023-03-31T03:25:41.239Z,100046.91
2023-03-31T03:28:44.828Z,100037.13
2023-03-31T03:31:49.738Z,100040.75
2023-03-31T03:34:53.250Z,100036.56
2023-03-31T03:37:56.846Z,100022.03
2023-03-31T03:41:00.696Z,100022.88
2023-03-31T03:44:04.290Z,100013.47
2023-03-31T03:47:09.281Z,100022.31
2023-03-31T03:50:15.924Z,100019.00
2023-03-31T03:53:20.712Z,100014.53
2023-03-31T03:56:24.251Z,100003.03
2023-03-31T03:59:27.815Z,100001.41
2023-03-31T04:02:32.842Z,100001.50
2023-03-31T04:05:36.407Z,99996.25
2023-03-31T04:08:39.933Z,99984.00
2023-03-31T04:11:43.508Z,99987.53
2023-03-31T04:14:47.024Z,99984.06
2023-03-31T04:17:54.815Z,99970.91
2023-03-31T04:21:05.107Z,99963.09
2023-03-31T04:24:09.350Z,99954.47
2023-03-31T04:27:13.565Z,99948.47
2023-03-31T04:30:23.731Z,99943.13
2023-03-31T04:33:28.839Z,99931.88
2023-03-31T04:36:32.698Z,99916.22
2023-03-31T04:39:36.240Z,99915.53
2023-03-31T04:42:39.734Z,99905.97
2023-03-31T04:45:43.942Z,99901.63
2023-03-31T04:48:48.954Z,99893.13
2023-03-31T04:51:52.881Z,99891.66
2023-03-31T04:54:56.515Z,99889.34
2023-03-31T04:58:00.289Z,99881.63
2023-03-31T05:01:06.492Z,99874.44
2023-03-31T05:04:12.224Z,99865.97
2023-03-31T05:07:15.816Z,99865.13
2023-03-31T05:10:19.638Z,99864.56
2023-03-31T05:13:23.243Z,99854.09
2023-03-31T05:16:26.807Z,99853.16
2023-03-31T05:19:31.913Z,99857.47
2023-03-31T05:22:37.998Z,99849.94
2023-03-31T05:25:42.365Z,99837.66
2023-03-31T05:28:46.042Z,99838.50
2023-03-31T05:31:50.014Z,99826.06
2023-03-31T05:34:57.131Z,99825.75
2023-03-31T05:38:00.689Z,99817.88
2023-03-31T05:41:04.466Z,99814.75
2023-03-31T05:44:08.670Z,99812.69
2023-03-31T05:47:12.316Z,99817.69
2023-03-31T05:50:17.445Z,99824.81
2023-03-31T05:53:21.150Z,99826.63
2023-03-31T05:56:25.122Z,99829.41
2023-03-31T05:59:29.020Z,99830.47
2023-03-31T06:02:34.064Z,99825.03
2023-03-31T06:05:39.380Z,99821.75
2023-03-31T06:08:43.807Z,99820.03
2023-03-31T06:11:49.391Z,99818.63
2023-03-31T06:14:53.855Z,99814.03
2023-03-31T06:17:57.430Z,99806.59
2023-03-31T06:21:02.880Z,99809.09
2023-03-31T06:24:07.015Z,99794.66
2023-03-31T06:27:10.796Z,99792.59
2023-03-31T06:30:15.294Z,99801.72
2023-03-31T06:33:18.884Z,99790.13
2023-03-31T06:36:24.380Z,99790.28
2023-03-31T06:39:28.653Z,99788.28
2023-03-31T06:42:32.176Z,99784.91
2023-03-31T06:45:35.791Z,99786.31
2023-03-31T06:48:39.572Z,99775.78
2023-03-31T06:51:44.539Z,99772.47
2023-03-31T06:54:48.028Z,99772.16
2023-03-31T06:57:51.629Z,99778.16
2023-03-31T07:00:55.297Z,99774.78
2023-03-31T07:03:58.823Z,99773.44
2023-03-31T07:07:04.087Z,99755.44
2023-03-31T07:10:08.868Z,99757.28
2023-03-31T07:13:13.641Z,99757.84
2023-03-31T07:16:17.244Z,99757.44
2023-03-31T07:19:21.215Z,99754.97
2023-03-31T07:22:26.254Z,99748.59
2023-03-31T07:25:29.893Z,99744.84
2023-03-31T07:28:33.471Z,99742.69
2023-03-31T07:31:37.425Z,99745.00
2023-03-31T07:34:41.756Z,99742.56
2023-03-31T07:37:51.178Z,99731.59
2023-03-31T07:41:07.646Z,99724.53
2023-03-31T07:44:12.839Z,99721.91
2023-03-31T07:47:16.964Z,99726.09
2023-03-31T07:50:21.486Z,99717.84
2023-03-31T07:53:26.555Z,99706.03
2023-03-31T07:56:30.123Z,99705.34
2023-03-31T07:59:33.977Z,99706.81
2023-03-31T08:02:38.645Z,99704.66
2023-03-31T08:05:42.384Z,99693.03
2023-03-31T08:08:47.624Z,99688.63
2023-03-31T08:11:51.589Z,99681.59
2023-03-31T08:14:55.113Z,99677.75
2023-03-31T08:17:58.775Z,99663.38
2023-03-31T08:21:02.345Z,99662.78
2023-03-31T08:24:07.598Z,99658.44
2023-03-31T08:27:12.580Z,99650.66
2023-03-31T08:30:16.712Z,99643.72
2023-03-31T08:33:20.218Z,99645.63
2023-03-31T08:36:23.802Z,99649.56
2023-03-31T08:39:28.887Z,99642.78
2023-03-31T08:42:41.951Z,99643.88
2023-03-31T08:45:50.344Z,99630.38
2023-03-31T08:48:59.223Z,99623.06
2023-03-31T08:52:10.311Z,99628.41
2023-03-31T08:55:25.145Z,99614.78
2023-03-31T08:58:40.106Z,99609.13
2023-03-31T09:01:56.246Z,99598.97
2023-03-31T09:05:31.594Z,99597.47
2023-03-31T09:08:39.254Z,99588.28
2023-03-31T09:11:55.025Z,99585.59
2023-03-31T09:15:02.351Z,99587.19
2023-03-31T09:18:19.186Z,99589.66
2023-03-31T09:21:30.174Z,99589.66
2023-03-31T09:24:45.582Z,99574.25
2023-03-31T09:27:54.361Z,99575.63
2023-03-31T09:30:58.548Z,99575.34
2023-03-31T09:34:14.342Z,99570.16
2023-03-31T09:37:18.147Z,99571.94
2023-03-31T09:40:25.508Z,99559.44
2023-03-31T09:43:35.183Z,99550.72
2023-03-31T09:46:40.508Z,99550.06
2023-03-31T09:49:53.951Z,99551.25
2023-03-31T09:53:00.852Z,99542.19
2023-03-31T09:56:11.433Z,99539.72
2023-03-31T09:59:19.955Z,99542.19
2023-03-31T10:02:36.534Z,99534.47
2023-03-31T10:05:49.874Z,99537.19
2023-03-31T10:08:58.250Z,99519.97
2023-03-31T10:12:08.318Z,99518.44
2023-03-31T10:15:23.852Z,99520.97
2023-03-31T10:18:36.728Z,99505.84
2023-03-31T10:21:40.537Z,99505.59
2023-03-31T10:24:46.870Z,99503.22
2023-03-31T10:27:55.382Z,99499.22
2023-03-31T10:31:03.285Z,99495.16
2023-03-31T10:34:12.704Z,99489.31
2023-03-31T10:37:22.881Z,99487.78
2023-03-31T10:40:29.508Z,99485.06
2023-03-31T10:43:41.083Z,99481.34
2023-03-31T10:46:52.587Z,99477.84
2023-03-31T10:49:59.030Z,99475.16
2023-03-31T10:53:06.320Z,99471.94
2023-03-31T10:56:39.358Z,99467.28
2023-03-31T11:00:03.955Z,99466.16
2023-03-31T11:03:57.178Z,99466.31
2023-03-31T11:07:13.873Z,99458.81
2023-03-31T11:10:41.069Z,99458.81
2023-03-31T11:13:56.677Z,99459.91
2023-03-31T11:17:18.457Z,99455.00
2023-03-31T11:20:34.268Z,99444.41
2023-03-31T11:23:44.159Z,99447.72
2023-03-31T11:27:02.678Z,99449.59
2023-03-31T11:30:15.664Z,99447.91
2023-03-31T11:33:48.746Z,99450.50
2023-03-31T11:37:41.612Z,99441.72
2023-03-31T11:41:01.363Z,99434.22
2023-03-31T11:44:07.816Z,99429.84
2023-03-31T11:47:20.151Z,99417.97
2023-03-31T11:50:29.032Z,99396.63
2023-03-31T11:53:39.921Z,99392.81
2023-03-31T11:56:43.980Z,99390.31
2023-03-31T11:59:57.048Z,99384.88
2023-03-31T12:03:11.281Z,99386.25
2023-03-31T12:06:20.369Z,99386.06
2023-03-31T12:09:34.187Z,99381.47
2023-03-31T12:12:45.057Z,99379.53
2023-03-31T12:16:02.879Z,99392.25
2023-03-31T12:19:18.080Z,99385.19
2023-03-31T12:22:28.972Z,99375.34
2023-03-31T12:25:49.264Z,99382.63
2023-03-31T12:29:02.106Z,99381.31
2023-03-31T12:32:13.087Z,99377.03
2023-03-31T12:35:26.150Z,99387.53
2023-03-31T12:38:57.328Z,99382.63
2023-03-31T12:42:40.723Z,99378.13
2023-03-31T12:45:56.606Z,99374.69
2023-03-31T12:49:29.498Z,99373.41
2023-03-31T12:52:48.684Z,99367.34
2023-03-31T12:55:58.879Z,99371.38
2023-03-31T12:59:36.006Z,99377.72
2023-03-31T13:02:43.154Z,99382.63
2023-03-31T13:05:49.265Z,99383.22
2023-03-31T13:08:56.592Z,99380.59
2023-03-31T13:12:07.263Z,99378.75
2023-03-31T13:15:16.707Z,99367.94
2023-03-31T13:18:23.655Z,99364.81
2023-03-31T13:21:28.183Z,99358.16
2023-03-31T13:24:34.229Z,99359.22
2023-03-31T13:27:39.677Z,99350.47
2023-03-31T13:30:54.919Z,99350.72
2023-03-31T13:34:01.152Z,99355.16
2023-03-31T13:37:21.157Z,99353.50
2023-03-31T13:41:20.501Z,99355.00
2023-03-31T13:44:56.814Z,99360.72
2023-03-31T13:48:29.746Z,99357.09
2023-03-31T13:51:56.069Z,99358.91
2023-03-31T13:55:45.263Z,99364.22
2023-03-31T13:59:35.258Z,99361.44
2023-03-31T14:03:07.134Z,99357.88
2023-03-31T14:06:26.510Z,99358.97
2023-03-31T14:09:41.240Z,99356.34
2023-03-31T14:12:44.769Z,99351.75
2023-03-31T14:15:53.321Z,99360.97
2023-03-31T14:19:14.767Z,99354.03
2023-03-31T14:22:35.174Z,99354.09
2023-03-31T14:25:54.453Z,99350.69
2023-03-31T14:29:13.710Z,99347.47
2023-03-31T14:32:32.844Z,99345.72
2023-03-31T14:35:43.023Z,99346.06
2023-03-31T14:38:48.182Z,99342.84
2023-03-31T14:41:54.714Z,99341.16
2023-03-31T14:45:03.420Z,99347.03
2023-03-31T14:48:16.363Z,99336.84
2023-03-31T14:51:27.605Z,99328.94
2023-03-31T14:54:38.294Z,99327.91
2023-03-31T14:57:42.655Z,99325.16
2023-03-31T15:00:46.852Z,99329.81
2023-03-31T15:03:53.160Z,99318.41
2023-03-31T15:06:58.506Z,99323.16
2023-03-31T15:10:06.527Z,99324.19
2023-03-31T15:13:12.569Z,99320.00
2023-03-31T15:16:32.900Z,99316.44
2023-03-31T15:19:37.358Z,99320.53
2023-03-31T15:22:41.036Z,99317.03
2023-03-31T15:25:46.319Z,99321.03
2023-03-31T15:28:56.629Z,99312.06
2023-03-31T15:32:01.071Z,99313.44
2023-03-31T15:38:33.311Z,99313.38
2023-03-31T15:41:38.426Z,99318.72
2023-03-31T15:44:47.683Z,99314.91
2023-03-31T15:47:55.489Z,99318.03
2023-03-31T15:51:06.558Z,99318.34
2023-03-31T15:54:34.368Z,99320.34
2023-03-31T15:57:39.383Z,99328.31
2023-03-31T16:00:47.720Z,99329.47
2023-03-31T16:03:55.680Z,99325.13
2023-03-31T16:07:05.249Z,99324.69
2023-03-31T16:10:19.576Z,99325.44
2023-03-31T16:13:25.652Z,99320.72
2023-03-31T16:16:31.865Z,99320.66
2023-03-31T16:19:52.228Z,99321.72
2023-03-31T16:23:00.558Z,99328.66
2023-03-31T16:26:04.468Z,99316.91
2023-03-31T16:29:09.693Z,99326.41
2023-03-31T16:32:16.474Z,99322.59
2023-03-31T16:35:20.400Z,99324.28
2023-03-31T16:38:26.532Z,99328.06
2023-03-31T16:41:30.850Z,99323.25
2023-03-31T16:44:35.888Z,99321.38
2023-03-31T16:50:43.299Z,99323.38
2023-03-31T16:53:48.541Z,99328.63
2023-03-31T16:56:52.167Z,99321.69
2023-03-31T16:59:58.860Z,99324.13
2023-03-31T17:03:02.928Z,99324.28
2023-03-31T17:06:11.748Z,99322.22
2023-03-31T17:09:15.390Z,99326.34
2023-03-31T17:12:18.971Z,99317.09
2023-03-31T17:15:29.707Z,99324.69
2023-03-31T17:18:33.241Z,99324.59
2023-03-31T17:21:37.470Z,99328.84
2023-03-31T17:24:41.096Z,99319.06
2023-03-31T17:27:44.716Z,99321.63
2023-03-31T17:30:50.340Z,99334.84
2023-03-31T17:33:54.820Z,99329.22
2023-03-31T17:36:58.609Z,99336.31
2023-03-31T17:40:02.254Z,99346.81
2023-03-31T17:43:06.009Z,99336.50
2023-03-31T17:46:12.605Z,99345.94
2023-03-31T17:49:17.137Z,99340.69
2023-03-31T17:52:20.831Z,99342.09
2023-03-31T17:55:24.993Z,99340.59
2023-03-31T17:58:28.521Z,99346.28
2023-03-31T18:01:33.524Z,99344.03
2023-03-31T18:04:38.700Z,99341.72
2023-03-31T18:07:43.290Z,99349.00
2023-03-31T18:10:49.281Z,99351.00
2023-03-31T18:13:54.073Z,99348.34
2023-03-31T18:17:11.841Z,99345.78
2023-03-31T18:20:16.673Z,99350.38
2023-03-31T18:23:20.919Z,99351.41
2023-03-31T18:26:27.168Z,99351.50
2023-03-31T18:29:32.171Z,99352.69
2023-03-31T18:32:45.552Z,99348.97
2023-03-31T18:35:53.822Z,99359.63
2023-03-31T18:38:57.626Z,99354.38
2023-03-31T18:42:01.253Z,99362.50
2023-03-31T18:45:08.868Z,99358.84
2023-03-31T18:48:15.116Z,99360.75
2023-03-31T18:51:20.170Z,99357.44
2023-03-31T18:54:28.734Z,99356.41
2023-03-31T18:57:32.377Z,99354.38
2023-03-31T19:00:36.125Z,99361.75
2023-03-31T19:03:42.544Z,99352.47
2023-03-31T19:06:46.095Z,99363.78
2023-03-31T19:09:49.695Z,99364.19
2023-03-31T19:12:53.311Z,99363.03
2023-03-31T19:15:56.795Z,99364.47
2023-03-31T19:19:02.284Z,99363.72
2023-03-31T19:22:05.900Z,99365.84
2023-03-31T19:25:10.556Z,99365.28
2023-03-31T19:28:18.245Z,99372.00
2023-03-31T19:31:21.955Z,99377.53
2023-03-31T19:34:27.267Z,99378.94
2023-03-31T19:37:31.200Z,99381.16
2023-03-31T19:40:34.701Z,99386.25
2023-03-31T19:43:38.459Z,99391.53
2023-03-31T19:46:41.977Z,99393.81
2023-03-31T19:49:47.182Z,99393.06
2023-03-31T19:52:51.002Z,99392.47
2023-03-31T19:55:59.810Z,99394.34
2023-03-31T19:59:03.514Z,99397.22
2023-03-31T20:02:09.585Z,99398.06
2023-03-31T20:05:14.585Z,99398.25
2023-03-31T20:08:19.555Z,99390.34
2023-03-31T20:11:24.382Z,99389.13
2023-03-31T20:14:28.310Z,99396.53
2023-03-31T20:17:31.916Z,99397.09
2023-03-31T20:20:36.914Z,99386.34
2023-03-31T20:23:42.998Z,99389.22
2023-03-31T20:26:47.852Z,99386.59
2023-03-31T20:29:51.359Z,99382.47
2023-03-31T20:32:54.924Z,99385.22
2023-03-31T20:36:07.838Z,99388.94
2023-03-31T20:39:15.474Z,99385.16
2023-03-31T20:42:20.783Z,99383.47
2023-03-31T20:45:24.344Z,99378.84
2023-03-31T20:48:27.805Z,99381.59
2023-03-31T20:51:36.328Z,99377.72
2023-03-31T20:54:39.760Z,99377.31
2023-03-31T20:57:43.260Z,99376.06
2023-03-31T21:00:46.862Z,99381.28
2023-03-31T21:03:51.280Z,99388.06
2023-03-31T21:06:56.139Z,99385.75
2023-03-31T21:10:00.649Z,99383.13
2023-03-31T21:13:04.479Z,99390.06
2023-03-31T21:16:08.555Z,99392.59
2023-03-31T21:19:13.160Z,99394.28
2023-03-31T21:22:18.821Z,99389.72
2023-03-31T21:25:22.386Z,99388.19
2023-03-31T21:28:29.924Z,99386.34
2023-03-31T21:31:33.738Z,99389.97
2023-03-31T21:34:37.337Z,99397.00
2023-03-31T21:37:42.352Z,99397.47
2023-03-31T21:40:45.990Z,99399.47
2023-03-31T21:43:50.041Z,99404.56
2023-03-31T21:46:53.764Z,99402.94
2023-03-31T21:49:57.414Z,99402.25
2023-03-31T21:53:04.794Z,99398.78
2023-03-31T21:56:08.478Z,99404.50
2023-03-31T21:59:11.989Z,99397.88
2023-03-31T22:02:15.733Z,99403.13
2023-03-31T22:05:19.675Z,99406.66
2023-03-31T22:08:25.382Z,99402.50
2023-03-31T22:11:28.984Z,99409.47
2023-03-31T22:14:32.596Z,99408.81
2023-03-31T22:17:36.300Z,99402.88
2023-03-31T22:20:40.218Z,99406.09
2023-03-31T22:23:45.229Z,99405.94
2023-03-31T22:26:48.757Z,99410.06
2023-03-31T22:29:52.253Z,99409.25
2023-03-31T22:32:56.193Z,99414.44
2023-03-31T22:35:59.798Z,99412.88
2023-03-31T22:39:05.128Z,99413.34
2023-03-31T22:42:08.712Z,99410.44
2023-03-31T22:45:20.106Z,99408.88
2023-03-31T22:48:23.615Z,99419.34
2023-03-31T22:51:27.283Z,99416.75
2023-03-31T22:54:32.394Z,99411.41
2023-03-31T22:57:37.190Z,99412.41
2023-03-31T23:00:41.532Z,99414.97
2023-03-31T23:03:46.863Z,99419.34
2023-03-31T23:06:50.511Z,99414.88
2023-03-31T23:09:55.365Z,99414.13
2023-03-31T23:12:58.895Z,99414.97
2023-03-31T23:16:06.802Z,99412.25
2023-03-31T23:19:10.606Z,99420.06
2023-03-31T23:22:14.265Z,99413.97
2023-03-31T23:25:19.468Z,99413.88
2023-03-31T23:28:23.015Z,99416.50
2023-03-31T23:31:29.792Z,99412.97
2023-03-31T23:34:33.344Z,99418.19
2023-03-31T23:37:36.829Z,99412.97
2023-03-31T23:40:41.906Z,99420.72
2023-03-31T23:43:46.029Z,99413.88
2023-03-31T23:46:49.641Z,99413.88
2023-03-31T23:49:54.249Z,99416.41
2023-03-31T23:52:59.438Z,99419.03
2023-03-31T23:56:08.859Z,99411.19
2023-03-31T23:59:12.353Z,99412.88
